sensor_id;sensor_type;location;lat;lon;timestamp;temperature;humidity
2867;DHT22;1441;48.886;8.728;2023-07-29T00:00:48;17.90;99.90
2867;DHT22;1441;48.886;8.728;2023-07-29T00:03:14;17.80;99.90
2867;DHT22;1441;48.886;8.728;2023-07-29T00:05:40;17.90;99.90
2867;DHT22;1441;48.886;8.728;2023-07-29T00:08:06;17.90;99.90
2867;DHT22;1441;48.886;8.728;2023-07-29T00:10:34;17.90;99.90
2867;DHT22;1441;48.886;8.728;2023-07-29T00:13:00;17.90;99.90
2867;DHT22;1441;48.886;8.728;2023-07-29T00:15:26;17.90;99.90
2867;DHT22;1441;48.886;8.728;2023-07-29T00:17:51;17.90;99.90
2867;DHT22;1441;48.886;8.728;2023-07-29T00:20:17;17.90;99.90
2867;DHT22;1441;48.886;8.728;2023-07-29T00:22:43;17.90;99.90
2867;DHT22;1441;48.886;8.728;2023-07-29T00:25:08;17.90;99.90
2867;DHT22;1441;48.886;8.728;2023-07-29T00:27:34;17.90;99.90
2867;DHT22;1441;48.886;8.728;2023-07-29T00:29:59;17.90;99.90
2867;DHT22;1441;48.886;8.728;2023-07-29T00:32:28;17.90;99.90
2867;DHT22;1441;48.886;8.728;2023-07-29T00:34:54;17.90;99.90
2867;DHT22;1441;48.886;8.728;2023-07-29T00:37:20;18.20;99.90
2867;DHT22;1441;48.886;8.728;2023-07-29T00:39:45;18.30;99.90
2867;DHT22;1441;48.886;8.728;2023-07-29T00:42:11;18.60;99.90
2867;DHT22;1441;48.886;8.728;2023-07-29T00:44:36;18.80;99.90
2867;DHT22;1441;48.886;8.728;2023-07-29T00:47:03;18.90;99.90
2867;DHT22;1441;48.886;8.728;2023-07-29T00:49:30;18.70;99.90
2867;DHT22;1441;48.886;8.728;2023-07-29T00:51:56;18.80;99.90
2867;DHT22;1441;48.886;8.728;2023-07-29T00:54:22;18.90;99.90
2867;DHT22;1441;48.886;8.728;2023-07-29T00:56:48;18.80;99.90
2867;DHT22;1441;48.886;8.728;2023-07-29T00:59:13;18.60;99.90
2867;DHT22;1441;48.886;8.728;2023-07-29T01:01:39;18.70;99.90
2867;DHT22;1441;48.886;8.728;2023-07-29T01:04:05;18.80;99.90
2867;DHT22;1441;48.886;8.728;2023-07-29T01:06:50;18.90;99.90
2867;DHT22;1441;48.886;8.728;2023-07-29T01:09:30;18.90;99.90
2867;DHT22;1441;48.886;8.728;2023-07-29T01:14:59;18.70;99.90
2867;DHT22;1441;48.886;8.728;2023-07-29T01:17:33;18.80;99.90
2867;DHT22;1441;48.886;8.728;2023-07-29T01:20:06;18.90;99.90
2867;DHT22;1441;48.886;8.728;2023-07-29T01:22:37;18.80;99.90
2867;DHT22;1441;48.886;8.728;2023-07-29T01:25:03;18.80;99.90
2867;DHT22;1441;48.886;8.728;2023-07-29T01:27:29;18.70;99.90
2867;DHT22;1441;48.886;8.728;2023-07-29T01:29:56;18.60;99.90
2867;DHT22;1441;48.886;8.728;2023-07-29T01:35:33;18.50;99.90
2867;DHT22;1441;48.886;8.728;2023-07-29T01:38:03;18.50;99.90
2867;DHT22;1441;48.886;8.728;2023-07-29T01:40:30;18.50;99.90
2867;DHT22;1441;48.886;8.728;2023-07-29T01:42:56;18.50;99.90
2867;DHT22;1441;48.886;8.728;2023-07-29T01:45:25;18.50;99.90
2867;DHT22;1441;48.886;8.728;2023-07-29T01:47:51;18.50;99.90
2867;DHT22;1441;48.886;8.728;2023-07-29T01:50:17;18.40;99.90
2867;DHT22;1441;48.886;8.728;2023-07-29T01:52:42;18.40;99.90
2867;DHT22;1441;48.886;8.728;2023-07-29T01:55:08;18.40;99.90
2867;DHT22;1441;48.886;8.728;2023-07-29T01:57:34;18.30;99.90
2867;DHT22;1441;48.886;8.728;2023-07-29T01:59:59;18.30;99.90
2867;DHT22;1441;48.886;8.728;2023-07-29T02:02:25;18.20;99.90
2867;DHT22;1441;48.886;8.728;2023-07-29T02:04:50;18.20;99.90
2867;DHT22;1441;48.886;8.728;2023-07-29T02:07:18;18.20;99.90
2867;DHT22;1441;48.886;8.728;2023-07-29T02:09:44;18.20;99.90
2867;DHT22;1441;48.886;8.728;2023-07-29T02:12:10;18.20;99.90
2867;DHT22;1441;48.886;8.728;2023-07-29T02:14:36;18.20;99.90
2867;DHT22;1441;48.886;8.728;2023-07-29T02:17:01;18.00;99.90
2867;DHT22;1441;48.886;8.728;2023-07-29T02:19:27;18.10;99.90
2867;DHT22;1441;48.886;8.728;2023-07-29T02:21:52;18.20;99.90
2867;DHT22;1441;48.886;8.728;2023-07-29T02:24:18;18.40;99.90
2867;DHT22;1441;48.886;8.728;2023-07-29T02:26:43;18.30;99.90
2867;DHT22;1441;48.886;8.728;2023-07-29T02:29:09;18.00;99.90
2867;DHT22;1441;48.886;8.728;2023-07-29T02:31:35;17.90;99.90
2867;DHT22;1441;48.886;8.728;2023-07-29T02:34:03;17.90;99.90
2867;DHT22;1441;48.886;8.728;2023-07-29T02:36:28;17.80;99.90
2867;DHT22;1441;48.886;8.728;2023-07-29T02:38:54;17.90;99.90
2867;DHT22;1441;48.886;8.728;2023-07-29T02:41:20;17.90;99.90
2867;DHT22;1441;48.886;8.728;2023-07-29T02:43:49;18.00;99.90
2867;DHT22;1441;48.886;8.728;2023-07-29T02:46:15;18.20;99.90
2867;DHT22;1441;48.886;8.728;2023-07-29T02:48:42;18.40;99.90
2867;DHT22;1441;48.886;8.728;2023-07-29T02:51:08;18.20;99.90
2867;DHT22;1441;48.886;8.728;2023-07-29T02:53:33;18.10;99.90
2867;DHT22;1441;48.886;8.728;2023-07-29T02:56:02;18.00;99.90
2867;DHT22;1441;48.886;8.728;2023-07-29T02:58:28;17.90;99.90
2867;DHT22;1441;48.886;8.728;2023-07-29T03:00:54;18.00;99.90
2867;DHT22;1441;48.886;8.728;2023-07-29T03:03:25;18.50;99.90
2867;DHT22;1441;48.886;8.728;2023-07-29T03:05:58;18.60;99.90
2867;DHT22;1441;48.886;8.728;2023-07-29T03:08:24;18.50;99.90
2867;DHT22;1441;48.886;8.728;2023-07-29T03:10:49;18.50;99.90
2867;DHT22;1441;48.886;8.728;2023-07-29T03:13:15;18.40;99.90
2867;DHT22;1441;48.886;8.728;2023-07-29T03:15:40;18.10;99.90
2867;DHT22;1441;48.886;8.728;2023-07-29T03:18:06;18.00;99.90
2867;DHT22;1441;48.886;8.728;2023-07-29T03:20:32;17.90;99.90
2867;DHT22;1441;48.886;8.728;2023-07-29T03:22:57;18.00;99.90
2867;DHT22;1441;48.886;8.728;2023-07-29T03:25:23;18.20;99.90
2867;DHT22;1441;48.886;8.728;2023-07-29T03:27:50;18.10;99.90
2867;DHT22;1441;48.886;8.728;2023-07-29T03:30:19;18.10;99.90
2867;DHT22;1441;48.886;8.728;2023-07-29T03:32:46;18.10;99.90
2867;DHT22;1441;48.886;8.728;2023-07-29T03:35:11;18.30;99.90
2867;DHT22;1441;48.886;8.728;2023-07-29T03:37:37;18.60;99.90
2867;DHT22;1441;48.886;8.728;2023-07-29T03:40:03;18.80;99.90
2867;DHT22;1441;48.886;8.728;2023-07-29T03:42:29;18.80;99.90
2867;DHT22;1441;48.886;8.728;2023-07-29T03:44:55;18.80;99.90
2867;DHT22;1441;48.886;8.728;2023-07-29T03:47:20;18.80;99.90
2867;DHT22;1441;48.886;8.728;2023-07-29T03:49:46;18.60;99.90
2867;DHT22;1441;48.886;8.728;2023-07-29T03:52:11;18.70;99.90
2867;DHT22;1441;48.886;8.728;2023-07-29T03:54:37;18.80;99.90
2867;DHT22;1441;48.886;8.728;2023-07-29T03:57:02;18.70;99.90
2867;DHT22;1441;48.886;8.728;2023-07-29T03:59:28;18.50;99.90
2867;DHT22;1441;48.886;8.728;2023-07-29T04:01:54;18.60;99.90
2867;DHT22;1441;48.886;8.728;2023-07-29T04:04:20;18.80;99.90
2867;DHT22;1441;48.886;8.728;2023-07-29T04:06:46;18.90;99.90
2867;DHT22;1441;48.886;8.728;2023-07-29T04:09:11;18.80;99.90
2867;DHT22;1441;48.886;8.728;2023-07-29T04:11:37;18.80;99.90
2867;DHT22;1441;48.886;8.728;2023-07-29T04:14:02;18.60;99.90
2867;DHT22;1441;48.886;8.728;2023-07-29T04:16:28;18.40;99.90
2867;DHT22;1441;48.886;8.728;2023-07-29T04:18:54;18.50;99.90
2867;DHT22;1441;48.886;8.728;2023-07-29T04:21:20;18.70;99.90
2867;DHT22;1441;48.886;8.728;2023-07-29T04:23:45;18.60;99.90
2867;DHT22;1441;48.886;8.728;2023-07-29T04:26:11;18.50;99.90
2867;DHT22;1441;48.886;8.728;2023-07-29T04:28:36;18.30;99.90
2867;DHT22;1441;48.886;8.728;2023-07-29T04:31:02;18.20;99.90
2867;DHT22;1441;48.886;8.728;2023-07-29T04:33:29;18.20;99.90
2867;DHT22;1441;48.886;8.728;2023-07-29T04:35:55;18.20;99.90
2867;DHT22;1441;48.886;8.728;2023-07-29T04:38:21;18.20;99.90
2867;DHT22;1441;48.886;8.728;2023-07-29T04:40:49;18.10;99.90
2867;DHT22;1441;48.886;8.728;2023-07-29T04:43:14;18.10;99.90
2867;DHT22;1441;48.886;8.728;2023-07-29T04:45:46;18.00;99.90
2867;DHT22;1441;48.886;8.728;2023-07-29T04:48:11;18.10;99.90
2867;DHT22;1441;48.886;8.728;2023-07-29T04:50:37;18.10;99.90
2867;DHT22;1441;48.886;8.728;2023-07-29T04:53:02;18.20;99.90
2867;DHT22;1441;48.886;8.728;2023-07-29T04:55:28;18.20;99.90
2867;DHT22;1441;48.886;8.728;2023-07-29T04:57:54;18.30;99.90
2867;DHT22;1441;48.886;8.728;2023-07-29T05:00:19;18.40;99.90
2867;DHT22;1441;48.886;8.728;2023-07-29T05:02:45;18.40;99.90
2867;DHT22;1441;48.886;8.728;2023-07-29T05:05:11;18.40;99.90
2867;DHT22;1441;48.886;8.728;2023-07-29T05:07:36;18.50;99.90
2867;DHT22;1441;48.886;8.728;2023-07-29T05:10:02;18.60;99.90
2867;DHT22;1441;48.886;8.728;2023-07-29T05:12:28;18.70;99.90
2867;DHT22;1441;48.886;8.728;2023-07-29T05:14:54;18.80;99.90
2867;DHT22;1441;48.886;8.728;2023-07-29T05:17:21;19.00;99.90
2867;DHT22;1441;48.886;8.728;2023-07-29T05:19:46;19.10;99.90
2867;DHT22;1441;48.886;8.728;2023-07-29T05:22:12;19.10;99.90
2867;DHT22;1441;48.886;8.728;2023-07-29T05:24:37;19.10;99.90
2867;DHT22;1441;48.886;8.728;2023-07-29T05:27:03;19.10;99.90
2867;DHT22;1441;48.886;8.728;2023-07-29T05:29:29;19.10;99.90
2867;DHT22;1441;48.886;8.728;2023-07-29T05:31:54;19.10;99.90
2867;DHT22;1441;48.886;8.728;2023-07-29T05:34:20;19.10;99.90
2867;DHT22;1441;48.886;8.728;2023-07-29T05:36:45;19.10;99.90
2867;DHT22;1441;48.886;8.728;2023-07-29T05:39:11;19.30;99.90
2867;DHT22;1441;48.886;8.728;2023-07-29T05:41:37;19.50;99.90
2867;DHT22;1441;48.886;8.728;2023-07-29T05:44:03;19.70;99.90
2867;DHT22;1441;48.886;8.728;2023-07-29T05:46:28;19.90;99.90
2867;DHT22;1441;48.886;8.728;2023-07-29T05:48:54;20.30;99.90
2867;DHT22;1441;48.886;8.728;2023-07-29T05:51:20;21.50;99.90
2867;DHT22;1441;48.886;8.728;2023-07-29T05:53:45;22.20;98.90
2867;DHT22;1441;48.886;8.728;2023-07-29T05:56:11;21.80;99.40
2867;DHT22;1441;48.886;8.728;2023-07-29T05:58:36;21.20;99.90
2867;DHT22;1441;48.886;8.728;2023-07-29T06:01:02;20.80;99.90
2867;DHT22;1441;48.886;8.728;2023-07-29T06:03:27;20.50;99.90
2867;DHT22;1441;48.886;8.728;2023-07-29T06:05:54;20.60;99.90
2867;DHT22;1441;48.886;8.728;2023-07-29T06:08:19;20.30;99.90
2867;DHT22;1441;48.886;8.728;2023-07-29T06:10:45;19.90;99.90
2867;DHT22;1441;48.886;8.728;2023-07-29T06:13:10;20.00;99.90
2867;DHT22;1441;48.886;8.728;2023-07-29T06:15:36;20.30;99.90
2867;DHT22;1441;48.886;8.728;2023-07-29T06:18:02;20.20;99.90
2867;DHT22;1441;48.886;8.728;2023-07-29T06:20:28;20.10;99.90
2867;DHT22;1441;48.886;8.728;2023-07-29T06:22:53;19.90;99.90
2867;DHT22;1441;48.886;8.728;2023-07-29T06:25:19;19.90;99.90
2867;DHT22;1441;48.886;8.728;2023-07-29T06:27:44;19.90;99.90
2867;DHT22;1441;48.886;8.728;2023-07-29T06:30:10;20.00;99.90
2867;DHT22;1441;48.886;8.728;2023-07-29T06:32:36;20.10;99.90
2867;DHT22;1441;48.886;8.728;2023-07-29T06:35:01;19.90;99.90
2867;DHT22;1441;48.886;8.728;2023-07-29T06:37:27;19.90;99.90
2867;DHT22;1441;48.886;8.728;2023-07-29T06:39:53;19.80;99.90
2867;DHT22;1441;48.886;8.728;2023-07-29T06:42:18;19.70;99.90
2867;DHT22;1441;48.886;8.728;2023-07-29T06:44:44;19.80;99.90
2867;DHT22;1441;48.886;8.728;2023-07-29T06:47:11;19.90;99.90
2867;DHT22;1441;48.886;8.728;2023-07-29T06:49:37;19.90;99.90
2867;DHT22;1441;48.886;8.728;2023-07-29T06:52:02;19.90;99.90
2867;DHT22;1441;48.886;8.728;2023-07-29T06:54:28;19.80;99.90
2867;DHT22;1441;48.886;8.728;2023-07-29T06:56:54;19.90;99.90
2867;DHT22;1441;48.886;8.728;2023-07-29T06:59:19;19.70;99.90
2867;DHT22;1441;48.886;8.728;2023-07-29T07:01:45;19.50;99.90
2867;DHT22;1441;48.886;8.728;2023-07-29T07:04:10;19.30;99.90
2867;DHT22;1441;48.886;8.728;2023-07-29T07:06:36;19.30;99.90
2867;DHT22;1441;48.886;8.728;2023-07-29T07:09:02;19.30;99.90
2867;DHT22;1441;48.886;8.728;2023-07-29T07:11:27;19.30;99.90
2867;DHT22;1441;48.886;8.728;2023-07-29T07:13:53;19.50;99.90
2867;DHT22;1441;48.886;8.728;2023-07-29T07:16:19;19.40;99.90
2867;DHT22;1441;48.886;8.728;2023-07-29T07:18:44;19.40;99.90
2867;DHT22;1441;48.886;8.728;2023-07-29T07:21:10;19.40;99.90
2867;DHT22;1441;48.886;8.728;2023-07-29T07:23:35;19.40;99.90
2867;DHT22;1441;48.886;8.728;2023-07-29T07:26:01;19.40;99.90
2867;DHT22;1441;48.886;8.728;2023-07-29T07:28:27;19.30;99.90
2867;DHT22;1441;48.886;8.728;2023-07-29T07:30:52;19.40;99.90
2867;DHT22;1441;48.886;8.728;2023-07-29T07:33:18;19.60;99.90
2867;DHT22;1441;48.886;8.728;2023-07-29T07:35:44;19.70;99.90
2867;DHT22;1441;48.886;8.728;2023-07-29T07:38:10;19.90;99.90
2867;DHT22;1441;48.886;8.728;2023-07-29T07:40:36;20.30;99.90
2867;DHT22;1441;48.886;8.728;2023-07-29T07:43:02;20.80;99.90
2867;DHT22;1441;48.886;8.728;2023-07-29T07:45:27;21.40;99.90
2867;DHT22;1441;48.886;8.728;2023-07-29T07:47:53;22.30;99.90
2867;DHT22;1441;48.886;8.728;2023-07-29T07:50:19;23.10;98.50
2867;DHT22;1441;48.886;8.728;2023-07-29T07:52:45;24.90;93.80
2867;DHT22;1441;48.886;8.728;2023-07-29T07:55:11;25.80;88.20
2867;DHT22;1441;48.886;8.728;2023-07-29T07:57:36;26.60;86.10
2867;DHT22;1441;48.886;8.728;2023-07-29T08:00:02;26.10;86.80
2867;DHT22;1441;48.886;8.728;2023-07-29T08:02:29;25.30;89.20
2867;DHT22;1441;48.886;8.728;2023-07-29T08:04:55;24.20;91.60
2867;DHT22;1441;48.886;8.728;2023-07-29T08:07:20;23.10;94.90
2867;DHT22;1441;48.886;8.728;2023-07-29T08:09:46;22.40;97.60
2867;DHT22;1441;48.886;8.728;2023-07-29T08:12:11;21.90;99.60
2867;DHT22;1441;48.886;8.728;2023-07-29T08:14:37;21.50;99.90
2867;DHT22;1441;48.886;8.728;2023-07-29T08:17:03;21.40;99.90
2867;DHT22;1441;48.886;8.728;2023-07-29T08:19:28;21.50;99.90
2867;DHT22;1441;48.886;8.728;2023-07-29T08:21:54;21.40;99.90
2867;DHT22;1441;48.886;8.728;2023-07-29T08:24:19;21.30;99.90
2867;DHT22;1441;48.886;8.728;2023-07-29T08:26:45;21.20;99.90
2867;DHT22;1441;48.886;8.728;2023-07-29T08:29:11;21.20;99.90
2867;DHT22;1441;48.886;8.728;2023-07-29T08:31:37;21.30;99.90
2867;DHT22;1441;48.886;8.728;2023-07-29T08:34:03;21.40;99.90
2867;DHT22;1441;48.886;8.728;2023-07-29T08:36:28;21.50;99.90
2867;DHT22;1441;48.886;8.728;2023-07-29T08:38:54;21.70;99.90
2867;DHT22;1441;48.886;8.728;2023-07-29T08:41:25;21.70;99.90
2867;DHT22;1441;48.886;8.728;2023-07-29T08:46:40;22.00;99.60
2867;DHT22;1441;48.886;8.728;2023-07-29T08:49:06;22.10;99.60
2867;DHT22;1441;48.886;8.728;2023-07-29T08:51:33;22.50;98.00
2867;DHT22;1441;48.886;8.728;2023-07-29T08:54:00;22.70;97.10
2867;DHT22;1441;48.886;8.728;2023-07-29T08:56:26;24.00;94.90
2867;DHT22;1441;48.886;8.728;2023-07-29T08:58:53;25.70;89.40
2867;DHT22;1441;48.886;8.728;2023-07-29T09:01:19;26.40;86.90
2867;DHT22;1441;48.886;8.728;2023-07-29T09:03:45;25.90;87.30
2867;DHT22;1441;48.886;8.728;2023-07-29T09:06:11;24.90;89.00
2867;DHT22;1441;48.886;8.728;2023-07-29T09:08:38;24.30;91.60
2867;DHT22;1441;48.886;8.728;2023-07-29T09:11:04;24.10;92.50
2867;DHT22;1441;48.886;8.728;2023-07-29T09:13:30;24.50;93.80
2867;DHT22;1441;48.886;8.728;2023-07-29T09:15:57;25.10;92.40
2867;DHT22;1441;48.886;8.728;2023-07-29T09:18:23;24.90;91.30
2867;DHT22;1441;48.886;8.728;2023-07-29T09:20:51;24.50;91.50
2867;DHT22;1441;48.886;8.728;2023-07-29T09:23:17;23.90;94.00
2867;DHT22;1441;48.886;8.728;2023-07-29T09:25:46;23.70;94.50
2867;DHT22;1441;48.886;8.728;2023-07-29T09:28:13;22.90;97.30
2867;DHT22;1441;48.886;8.728;2023-07-29T09:30:40;22.50;98.80
2867;DHT22;1441;48.886;8.728;2023-07-29T09:33:06;22.00;99.90
2867;DHT22;1441;48.886;8.728;2023-07-29T09:35:34;21.60;99.90
2867;DHT22;1441;48.886;8.728;2023-07-29T09:38:00;21.20;99.90
2867;DHT22;1441;48.886;8.728;2023-07-29T09:40:26;20.70;99.90
2867;DHT22;1441;48.886;8.728;2023-07-29T09:42:55;20.50;99.90
2867;DHT22;1441;48.886;8.728;2023-07-29T09:45:25;20.30;99.90
2867;DHT22;1441;48.886;8.728;2023-07-29T09:47:54;20.10;99.90
2867;DHT22;1441;48.886;8.728;2023-07-29T09:50:25;19.90;99.90
2867;DHT22;1441;48.886;8.728;2023-07-29T09:52:52;20.00;99.90
2867;DHT22;1441;48.886;8.728;2023-07-29T09:55:20;20.00;99.90
2867;DHT22;1441;48.886;8.728;2023-07-29T09:57:46;20.00;99.90
2867;DHT22;1441;48.886;8.728;2023-07-29T10:00:13;20.10;99.90
2867;DHT22;1441;48.886;8.728;2023-07-29T10:02:42;20.20;99.90
2867;DHT22;1441;48.886;8.728;2023-07-29T10:05:09;20.20;99.90
2867;DHT22;1441;48.886;8.728;2023-07-29T10:07:39;20.20;99.90
2867;DHT22;1441;48.886;8.728;2023-07-29T10:10:06;20.20;99.90
2867;DHT22;1441;48.886;8.728;2023-07-29T10:12:34;20.40;99.90
2867;DHT22;1441;48.886;8.728;2023-07-29T10:15:02;20.90;99.90
2867;DHT22;1441;48.886;8.728;2023-07-29T10:17:29;21.20;99.90
2867;DHT22;1441;48.886;8.728;2023-07-29T10:19:56;21.40;99.90
2867;DHT22;1441;48.886;8.728;2023-07-29T10:22:25;21.20;99.90
2867;DHT22;1441;48.886;8.728;2023-07-29T10:24:54;21.10;99.90
2867;DHT22;1441;48.886;8.728;2023-07-29T10:27:24;20.90;99.90
2867;DHT22;1441;48.886;8.728;2023-07-29T10:29:50;20.80;99.90
2867;DHT22;1441;48.886;8.728;2023-07-29T10:32:19;20.80;99.90
2867;DHT22;1441;48.886;8.728;2023-07-29T10:34:49;20.80;99.90
2867;DHT22;1441;48.886;8.728;2023-07-29T10:37:15;20.70;99.90
2867;DHT22;1441;48.886;8.728;2023-07-29T10:39:52;20.80;99.90
2867;DHT22;1441;48.886;8.728;2023-07-29T10:42:18;21.30;99.90
2867;DHT22;1441;48.886;8.728;2023-07-29T10:44:47;21.90;99.90
2867;DHT22;1441;48.886;8.728;2023-07-29T10:49:51;22.80;99.90
2867;DHT22;1441;48.886;8.728;2023-07-29T10:55:00;23.40;99.90
2867;DHT22;1441;48.886;8.728;2023-07-29T10:57:34;23.40;98.40
2867;DHT22;1441;48.886;8.728;2023-07-29T11:00:00;23.40;98.10
2867;DHT22;1441;48.886;8.728;2023-07-29T11:02:31;23.60;98.10
2867;DHT22;1441;48.886;8.728;2023-07-29T11:04:58;23.60;97.70
2867;DHT22;1441;48.886;8.728;2023-07-29T11:07:25;23.90;97.60
2867;DHT22;1441;48.886;8.728;2023-07-29T11:09:56;23.90;95.90
2867;DHT22;1441;48.886;8.728;2023-07-29T11:12:47;23.70;95.30
2867;DHT22;1441;48.886;8.728;2023-07-29T11:15:21;23.50;96.30
2867;DHT22;1441;48.886;8.728;2023-07-29T11:20:16;23.30;96.60
2867;DHT22;1441;48.886;8.728;2023-07-29T11:22:43;23.40;96.40
2867;DHT22;1441;48.886;8.728;2023-07-29T11:25:11;23.40;97.20
2867;DHT22;1441;48.886;8.728;2023-07-29T11:27:37;23.70;96.30
2867;DHT22;1441;48.886;8.728;2023-07-29T11:30:05;24.00;95.40
2867;DHT22;1441;48.886;8.728;2023-07-29T11:32:32;24.20;94.70
2867;DHT22;1441;48.886;8.728;2023-07-29T11:35:02;24.30;93.70
2867;DHT22;1441;48.886;8.728;2023-07-29T11:37:28;24.60;93.10
2867;DHT22;1441;48.886;8.728;2023-07-29T11:39:53;24.60;92.70
2867;DHT22;1441;48.886;8.728;2023-07-29T11:42:19;24.70;92.50
2867;DHT22;1441;48.886;8.728;2023-07-29T11:44:45;24.80;92.80
2867;DHT22;1441;48.886;8.728;2023-07-29T11:47:11;25.00;91.70
2867;DHT22;1441;48.886;8.728;2023-07-29T11:49:40;25.20;90.10
2867;DHT22;1441;48.886;8.728;2023-07-29T11:52:07;25.00;90.20
2867;DHT22;1441;48.886;8.728;2023-07-29T11:54:35;25.00;90.00
2867;DHT22;1441;48.886;8.728;2023-07-29T11:57:01;25.20;90.30
2867;DHT22;1441;48.886;8.728;2023-07-29T11:59:27;25.30;90.20
2867;DHT22;1441;48.886;8.728;2023-07-29T12:01:53;25.30;89.20
2867;DHT22;1441;48.886;8.728;2023-07-29T12:04:19;25.30;89.50
2867;DHT22;1441;48.886;8.728;2023-07-29T12:06:45;25.10;88.90
2867;DHT22;1441;48.886;8.728;2023-07-29T12:09:11;25.00;89.30
2867;DHT22;1441;48.886;8.728;2023-07-29T12:11:39;25.00;89.00
2867;DHT22;1441;48.886;8.728;2023-07-29T12:14:07;25.00;87.10
2867;DHT22;1441;48.886;8.728;2023-07-29T12:16:43;24.90;87.00
2867;DHT22;1441;48.886;8.728;2023-07-29T12:19:12;24.80;87.70
2867;DHT22;1441;48.886;8.728;2023-07-29T12:21:43;24.90;87.10
2867;DHT22;1441;48.886;8.728;2023-07-29T12:24:09;24.80;86.80
2867;DHT22;1441;48.886;8.728;2023-07-29T12:26:36;25.00;85.80
2867;DHT22;1441;48.886;8.728;2023-07-29T12:29:19;25.10;86.10
2867;DHT22;1441;48.886;8.728;2023-07-29T12:31:46;25.00;86.30
2867;DHT22;1441;48.886;8.728;2023-07-29T12:34:21;24.90;84.60
2867;DHT22;1441;48.886;8.728;2023-07-29T12:36:48;24.70;86.10
2867;DHT22;1441;48.886;8.728;2023-07-29T12:39:23;24.60;86.60
2867;DHT22;1441;48.886;8.728;2023-07-29T12:41:51;24.50;87.70
2867;DHT22;1441;48.886;8.728;2023-07-29T12:44:17;24.40;87.10
2867;DHT22;1441;48.886;8.728;2023-07-29T12:46:43;24.40;87.10
2867;DHT22;1441;48.886;8.728;2023-07-29T12:49:09;24.30;87.60
2867;DHT22;1441;48.886;8.728;2023-07-29T12:51:35;24.30;88.50
2867;DHT22;1441;48.886;8.728;2023-07-29T12:54:01;24.60;88.60
2867;DHT22;1441;48.886;8.728;2023-07-29T12:56:28;24.90;88.80
2867;DHT22;1441;48.886;8.728;2023-07-29T12:58:54;25.00;86.70
2867;DHT22;1441;48.886;8.728;2023-07-29T13:01:19;24.90;86.80
2867;DHT22;1441;48.886;8.728;2023-07-29T13:03:45;24.70;86.40
2867;DHT22;1441;48.886;8.728;2023-07-29T13:06:11;24.60;86.60
2867;DHT22;1441;48.886;8.728;2023-07-29T13:08:36;24.50;86.00
2867;DHT22;1441;48.886;8.728;2023-07-29T13:11:03;24.60;86.70
2867;DHT22;1441;48.886;8.728;2023-07-29T13:13:29;24.90;87.00
2867;DHT22;1441;48.886;8.728;2023-07-29T13:15:54;25.10;86.80
2867;DHT22;1441;48.886;8.728;2023-07-29T13:18:21;25.10;85.90
2867;DHT22;1441;48.886;8.728;2023-07-29T13:20:47;25.00;84.30
2867;DHT22;1441;48.886;8.728;2023-07-29T13:23:13;24.90;84.10
2867;DHT22;1441;48.886;8.728;2023-07-29T13:25:38;25.00;83.60
2867;DHT22;1441;48.886;8.728;2023-07-29T13:28:04;24.80;83.50
2867;DHT22;1441;48.886;8.728;2023-07-29T13:30:30;24.80;84.30
2867;DHT22;1441;48.886;8.728;2023-07-29T13:32:55;24.80;84.00
2867;DHT22;1441;48.886;8.728;2023-07-29T13:35:21;24.90;84.10
2867;DHT22;1441;48.886;8.728;2023-07-29T13:37:47;24.80;83.80
2867;DHT22;1441;48.886;8.728;2023-07-29T13:40:12;24.80;83.20
2867;DHT22;1441;48.886;8.728;2023-07-29T13:42:38;25.00;83.10
2867;DHT22;1441;48.886;8.728;2023-07-29T13:45:04;25.30;82.50
2867;DHT22;1441;48.886;8.728;2023-07-29T13:47:30;25.60;82.30
2867;DHT22;1441;48.886;8.728;2023-07-29T13:49:55;25.80;81.80
2867;DHT22;1441;48.886;8.728;2023-07-29T13:52:21;25.90;80.30
2867;DHT22;1441;48.886;8.728;2023-07-29T13:54:46;25.70;80.00
2867;DHT22;1441;48.886;8.728;2023-07-29T13:57:12;25.70;81.30
2867;DHT22;1441;48.886;8.728;2023-07-29T13:59:37;25.80;80.10
2867;DHT22;1441;48.886;8.728;2023-07-29T14:02:05;25.70;80.70
2867;DHT22;1441;48.886;8.728;2023-07-29T14:04:31;25.60;81.70
2867;DHT22;1441;48.886;8.728;2023-07-29T14:06:57;25.80;80.70
2867;DHT22;1441;48.886;8.728;2023-07-29T14:09:22;25.80;80.50
2867;DHT22;1441;48.886;8.728;2023-07-29T14:11:48;25.90;80.60
2867;DHT22;1441;48.886;8.728;2023-07-29T14:14:13;26.00;79.50
2867;DHT22;1441;48.886;8.728;2023-07-29T14:16:39;26.00;80.20
2867;DHT22;1441;48.886;8.728;2023-07-29T14:19:05;25.90;79.20
2867;DHT22;1441;48.886;8.728;2023-07-29T14:21:30;25.90;79.60
2867;DHT22;1441;48.886;8.728;2023-07-29T14:23:56;26.00;80.50
2867;DHT22;1441;48.886;8.728;2023-07-29T14:26:21;26.00;80.00
2867;DHT22;1441;48.886;8.728;2023-07-29T14:28:47;26.10;79.80
2867;DHT22;1441;48.886;8.728;2023-07-29T14:31:14;26.10;79.60
2867;DHT22;1441;48.886;8.728;2023-07-29T14:33:42;26.20;78.80
2867;DHT22;1441;48.886;8.728;2023-07-29T14:36:08;26.10;78.20
2867;DHT22;1441;48.886;8.728;2023-07-29T14:38:34;26.20;77.30
2867;DHT22;1441;48.886;8.728;2023-07-29T14:40:59;26.10;77.70
2867;DHT22;1441;48.886;8.728;2023-07-29T14:43:25;25.90;78.00
2867;DHT22;1441;48.886;8.728;2023-07-29T14:45:51;25.90;78.00
2867;DHT22;1441;48.886;8.728;2023-07-29T14:48:16;25.80;77.90
2867;DHT22;1441;48.886;8.728;2023-07-29T14:50:42;25.90;78.50
2867;DHT22;1441;48.886;8.728;2023-07-29T14:53:09;26.00;78.10
2867;DHT22;1441;48.886;8.728;2023-07-29T14:55:34;26.10;79.10
2867;DHT22;1441;48.886;8.728;2023-07-29T14:58:00;26.20;78.50
2867;DHT22;1441;48.886;8.728;2023-07-29T15:00:26;26.50;77.40
2867;DHT22;1441;48.886;8.728;2023-07-29T15:02:51;26.50;77.90
2867;DHT22;1441;48.886;8.728;2023-07-29T15:05:17;26.60;77.80
2867;DHT22;1441;48.886;8.728;2023-07-29T15:07:42;26.40;77.90
2867;DHT22;1441;48.886;8.728;2023-07-29T15:10:08;26.40;77.70
2867;DHT22;1441;48.886;8.728;2023-07-29T15:12:33;26.20;78.60
2867;DHT22;1441;48.886;8.728;2023-07-29T15:14:59;26.40;78.50
2867;DHT22;1441;48.886;8.728;2023-07-29T15:17:25;26.30;78.50
2867;DHT22;1441;48.886;8.728;2023-07-29T15:19:50;26.20;78.30
2867;DHT22;1441;48.886;8.728;2023-07-29T15:22:16;26.20;78.80
2867;DHT22;1441;48.886;8.728;2023-07-29T15:24:42;26.30;79.00
2867;DHT22;1441;48.886;8.728;2023-07-29T15:27:11;26.50;78.00
2867;DHT22;1441;48.886;8.728;2023-07-29T15:29:37;26.50;76.90
2867;DHT22;1441;48.886;8.728;2023-07-29T15:32:03;26.20;77.80
2867;DHT22;1441;48.886;8.728;2023-07-29T15:34:29;26.10;78.90
2867;DHT22;1441;48.886;8.728;2023-07-29T15:36:57;26.30;79.20
2867;DHT22;1441;48.886;8.728;2023-07-29T15:39:23;26.40;76.80
2867;DHT22;1441;48.886;8.728;2023-07-29T15:41:48;26.60;77.60
2867;DHT22;1441;48.886;8.728;2023-07-29T15:44:14;26.50;77.10
2867;DHT22;1441;48.886;8.728;2023-07-29T15:46:39;26.40;77.70
2867;DHT22;1441;48.886;8.728;2023-07-29T15:49:05;26.60;77.40
2867;DHT22;1441;48.886;8.728;2023-07-29T15:51:31;26.70;77.90
2867;DHT22;1441;48.886;8.728;2023-07-29T15:53:56;26.60;76.80
2867;DHT22;1441;48.886;8.728;2023-07-29T15:56:22;26.60;76.20
2867;DHT22;1441;48.886;8.728;2023-07-29T15:58:48;26.40;76.50
2867;DHT22;1441;48.886;8.728;2023-07-29T16:01:13;26.30;78.10
2867;DHT22;1441;48.886;8.728;2023-07-29T16:03:39;26.00;78.50
2867;DHT22;1441;48.886;8.728;2023-07-29T16:06:06;26.00;77.60
2867;DHT22;1441;48.886;8.728;2023-07-29T16:08:32;26.10;78.20
2867;DHT22;1441;48.886;8.728;2023-07-29T16:10:58;26.10;77.70
2867;DHT22;1441;48.886;8.728;2023-07-29T16:13:23;26.00;78.80